sensor_id;sensor_type;location;lat;lon;timestamp;temperature;humidity
60293;DHT22;52402;52.670;6.750;2022-10-20T00:00:41;6.70;99.90
60293;DHT22;52402;52.670;6.750;2022-10-20T00:03:07;6.70;99.90
60293;DHT22;52402;52.670;6.750;2022-10-20T00:05:32;6.70;99.90
60293;DHT22;52402;52.670;6.750;2022-10-20T00:07:58;6.70;99.90
60293;DHT22;52402;52.670;6.750;2022-10-20T00:10:23;6.70;99.90
60293;DHT22;52402;52.670;6.750;2022-10-20T00:12:49;6.60;99.90
60293;DHT22;52402;52.670;6.750;2022-10-20T00:15:15;6.60;99.90
60293;DHT22;52402;52.670;6.750;2022-10-20T00:17:41;6.60;99.90
60293;DHT22;52402;52.670;6.750;2022-10-20T00:20:07;6.60;99.90
60293;DHT22;52402;52.670;6.750;2022-10-20T00:22:32;6.60;99.90
60293;DHT22;52402;52.670;6.750;2022-10-20T00:24:58;6.60;99.90
60293;DHT22;52402;52.670;6.750;2022-10-20T00:27:23;6.50;99.90
60293;DHT22;52402;52.670;6.750;2022-10-20T00:29:49;6.50;99.90
60293;DHT22;52402;52.670;6.750;2022-10-20T00:32:15;6.50;99.90
60293;DHT22;52402;52.670;6.750;2022-10-20T00:34:40;6.50;99.90
60293;DHT22;52402;52.670;6.750;2022-10-20T00:37:06;6.50;99.90
60293;DHT22;52402;52.670;6.750;2022-10-20T00:39:31;6.50;99.90
60293;DHT22;52402;52.670;6.750;2022-10-20T00:42:01;6.40;99.90
60293;DHT22;52402;52.670;6.750;2022-10-20T00:44:50;6.40;99.90
60293;DHT22;52402;52.670;6.750;2022-10-20T00:47:40;6.40;99.90
60293;DHT22;52402;52.670;6.750;2022-10-20T00:50:26;6.40;99.90
60293;DHT22;52402;52.670;6.750;2022-10-20T00:52:54;6.40;99.90
60293;DHT22;52402;52.670;6.750;2022-10-20T00:55:28;6.30;99.90
60293;DHT22;52402;52.670;6.750;2022-10-20T00:57:56;6.40;99.90
60293;DHT22;52402;52.670;6.750;2022-10-20T01:00:23;6.30;99.90
60293;DHT22;52402;52.670;6.750;2022-10-20T01:02:55;6.30;99.90
60293;DHT22;52402;52.670;6.750;2022-10-20T01:05:21;6.30;99.90
60293;DHT22;52402;52.670;6.750;2022-10-20T01:07:47;6.30;99.90
60293;DHT22;52402;52.670;6.750;2022-10-20T01:10:15;6.30;99.90
60293;DHT22;52402;52.670;6.750;2022-10-20T01:12:51;6.30;99.90
60293;DHT22;52402;52.670;6.750;2022-10-20T01:15:42;6.30;99.90
60293;DHT22;52402;52.670;6.750;2022-10-20T01:18:21;6.30;99.90
60293;DHT22;52402;52.670;6.750;2022-10-20T01:24:28;6.30;99.90
60293;DHT22;52402;52.670;6.750;2022-10-20T01:27:42;6.20;99.90
60293;DHT22;52402;52.670;6.750;2022-10-20T01:35:43;6.20;99.90
60293;DHT22;52402;52.670;6.750;2022-10-20T01:38:23;6.20;99.90
60293;DHT22;52402;52.670;6.750;2022-10-20T01:40:58;6.20;99.90
60293;DHT22;52402;52.670;6.750;2022-10-20T01:43:28;6.20;99.90
60293;DHT22;52402;52.670;6.750;2022-10-20T01:45:56;6.20;99.90
60293;DHT22;52402;52.670;6.750;2022-10-20T01:48:26;6.20;99.90
60293;DHT22;52402;52.670;6.750;2022-10-20T01:50:53;6.20;99.90
60293;DHT22;52402;52.670;6.750;2022-10-20T01:53:19;6.20;99.90
60293;DHT22;52402;52.670;6.750;2022-10-20T01:55:45;6.20;99.90
60293;DHT22;52402;52.670;6.750;2022-10-20T02:01:27;6.30;99.90
60293;DHT22;52402;52.670;6.750;2022-10-20T02:03:59;6.30;99.90
60293;DHT22;52402;52.670;6.750;2022-10-20T02:09:17;6.30;99.90
60293;DHT22;52402;52.670;6.750;2022-10-20T02:12:02;6.30;99.90
60293;DHT22;52402;52.670;6.750;2022-10-20T02:14:30;6.30;99.90
60293;DHT22;52402;52.670;6.750;2022-10-20T02:17:05;6.20;99.90
60293;DHT22;52402;52.670;6.750;2022-10-20T02:19:38;6.20;99.90
60293;DHT22;52402;52.670;6.750;2022-10-20T02:22:05;6.20;99.90
60293;DHT22;52402;52.670;6.750;2022-10-20T02:24:35;6.20;99.90
60293;DHT22;52402;52.670;6.750;2022-10-20T02:27:07;6.20;99.90
60293;DHT22;52402;52.670;6.750;2022-10-20T02:29:38;6.20;99.90
60293;DHT22;52402;52.670;6.750;2022-10-20T02:32:06;6.20;99.90
60293;DHT22;52402;52.670;6.750;2022-10-20T02:34:33;6.20;99.90
60293;DHT22;52402;52.670;6.750;2022-10-20T02:36:59;6.20;99.90
60293;DHT22;52402;52.670;6.750;2022-10-20T02:39:25;6.10;99.90
60293;DHT22;52402;52.670;6.750;2022-10-20T02:41:51;6.20;99.90
60293;DHT22;52402;52.670;6.750;2022-10-20T02:44:17;6.20;99.90
60293;DHT22;52402;52.670;6.750;2022-10-20T02:46:42;6.20;99.90
60293;DHT22;52402;52.670;6.750;2022-10-20T02:49:08;6.10;99.90
60293;DHT22;52402;52.670;6.750;2022-10-20T02:51:34;6.20;99.90
60293;DHT22;52402;52.670;6.750;2022-10-20T02:54:01;6.10;99.90
60293;DHT22;52402;52.670;6.750;2022-10-20T02:56:26;6.10;99.90
60293;DHT22;52402;52.670;6.750;2022-10-20T02:58:52;6.10;99.90
60293;DHT22;52402;52.670;6.750;2022-10-20T03:01:18;6.10;99.90
60293;DHT22;52402;52.670;6.750;2022-10-20T03:03:44;6.10;99.90
60293;DHT22;52402;52.670;6.750;2022-10-20T03:06:12;6.10;99.90
60293;DHT22;52402;52.670;6.750;2022-10-20T03:08:38;6.10;99.90
60293;DHT22;52402;52.670;6.750;2022-10-20T03:11:04;6.10;99.90
60293;DHT22;52402;52.670;6.750;2022-10-20T03:13:30;6.10;99.90
60293;DHT22;52402;52.670;6.750;2022-10-20T03:15:55;6.10;99.90
60293;DHT22;52402;52.670;6.750;2022-10-20T03:18:21;6.10;99.90
60293;DHT22;52402;52.670;6.750;2022-10-20T03:20:50;6.00;99.90
60293;DHT22;52402;52.670;6.750;2022-10-20T03:23:16;6.00;99.90
60293;DHT22;52402;52.670;6.750;2022-10-20T03:25:42;6.00;99.90
60293;DHT22;52402;52.670;6.750;2022-10-20T03:28:07;6.00;99.90
60293;DHT22;52402;52.670;6.750;2022-10-20T03:30:33;6.00;99.90
60293;DHT22;52402;52.670;6.750;2022-10-20T03:32:59;5.90;99.90
60293;DHT22;52402;52.670;6.750;2022-10-20T03:35:24;5.90;99.90
60293;DHT22;52402;52.670;6.750;2022-10-20T03:37:50;5.90;99.90
60293;DHT22;52402;52.670;6.750;2022-10-20T03:40:17;5.90;99.90
60293;DHT22;52402;52.670;6.750;2022-10-20T03:42:42;6.00;99.90
60293;DHT22;52402;52.670;6.750;2022-10-20T03:45:08;6.00;99.90
60293;DHT22;52402;52.670;6.750;2022-10-20T03:47:34;6.00;99.90
60293;DHT22;52402;52.670;6.750;2022-10-20T03:49:59;6.00;99.90
60293;DHT22;52402;52.670;6.750;2022-10-20T03:52:25;6.00;99.90
60293;DHT22;52402;52.670;6.750;2022-10-20T03:54:50;6.00;99.90
60293;DHT22;52402;52.670;6.750;2022-10-20T03:57:19;6.00;99.90
60293;DHT22;52402;52.670;6.750;2022-10-20T03:59:45;6.00;99.90
60293;DHT22;52402;52.670;6.750;2022-10-20T04:02:41;6.10;99.90
60293;DHT22;52402;52.670;6.750;2022-10-20T04:05:07;6.10;99.90
60293;DHT22;52402;52.670;6.750;2022-10-20T04:07:33;6.00;99.90
60293;DHT22;52402;52.670;6.750;2022-10-20T04:09:59;6.00;99.90
60293;DHT22;52402;52.670;6.750;2022-10-20T04:12:28;6.00;99.90
60293;DHT22;52402;52.670;6.750;2022-10-20T04:14:53;6.00;99.90
60293;DHT22;52402;52.670;6.750;2022-10-20T04:17:19;6.00;99.90
60293;DHT22;52402;52.670;6.750;2022-10-20T04:19:45;6.00;99.90
60293;DHT22;52402;52.670;6.750;2022-10-20T04:22:11;6.00;99.90
60293;DHT22;52402;52.670;6.750;2022-10-20T04:24:37;6.00;99.90
60293;DHT22;52402;52.670;6.750;2022-10-20T04:27:03;6.00;99.90
60293;DHT22;52402;52.670;6.750;2022-10-20T04:29:29;6.00;99.90
60293;DHT22;52402;52.670;6.750;2022-10-20T04:31:54;6.00;99.90
60293;DHT22;52402;52.670;6.750;2022-10-20T04:34:20;6.00;99.90
60293;DHT22;52402;52.670;6.750;2022-10-20T04:36:46;6.00;99.90
60293;DHT22;52402;52.670;6.750;2022-10-20T04:39:11;6.00;99.90
60293;DHT22;52402;52.670;6.750;2022-10-20T04:41:37;6.00;99.90
60293;DHT22;52402;52.670;6.750;2022-10-20T04:44:02;6.00;99.90
60293;DHT22;52402;52.670;6.750;2022-10-20T04:46:28;6.00;99.90
60293;DHT22;52402;52.670;6.750;2022-10-20T04:48:54;6.00;99.90
60293;DHT22;52402;52.670;6.750;2022-10-20T04:51:20;6.00;99.90
60293;DHT22;52402;52.670;6.750;2022-10-20T04:53:46;6.00;99.90
60293;DHT22;52402;52.670;6.750;2022-10-20T04:56:17;6.00;99.90
60293;DHT22;52402;52.670;6.750;2022-10-20T04:58:55;6.00;99.90
60293;DHT22;52402;52.670;6.750;2022-10-20T05:01:26;6.00;99.90
60293;DHT22;52402;52.670;6.750;2022-10-20T05:03:52;6.00;99.90
60293;DHT22;52402;52.670;6.750;2022-10-20T05:06:26;6.00;99.90
60293;DHT22;52402;52.670;6.750;2022-10-20T05:08:55;6.00;99.90
60293;DHT22;52402;52.670;6.750;2022-10-20T05:11:23;6.00;99.90
60293;DHT22;52402;52.670;6.750;2022-10-20T05:13:48;5.90;99.90
60293;DHT22;52402;52.670;6.750;2022-10-20T05:16:14;5.90;99.90
60293;DHT22;52402;52.670;6.750;2022-10-20T05:18:42;5.90;99.90
60293;DHT22;52402;52.670;6.750;2022-10-20T05:21:13;5.90;99.90
60293;DHT22;52402;52.670;6.750;2022-10-20T05:23:39;5.90;99.90
60293;DHT22;52402;52.670;6.750;2022-10-20T05:26:09;5.90;99.90
60293;DHT22;52402;52.670;6.750;2022-10-20T05:28:34;5.90;99.90
60293;DHT22;52402;52.670;6.750;2022-10-20T05:31:05;5.80;99.90
60293;DHT22;52402;52.670;6.750;2022-10-20T05:33:31;5.80;99.90
60293;DHT22;52402;52.670;6.750;2022-10-20T05:35:57;5.80;99.90
60293;DHT22;52402;52.670;6.750;2022-10-20T05:38:23;5.80;99.90
60293;DHT22;52402;52.670;6.750;2022-10-20T05:40:48;5.80;99.90
60293;DHT22;52402;52.670;6.750;2022-10-20T05:43:14;5.80;99.90
60293;DHT22;52402;52.670;6.750;2022-10-20T05:45:40;5.80;99.90
60293;DHT22;52402;52.670;6.750;2022-10-20T05:48:05;5.80;99.90
60293;DHT22;52402;52.670;6.750;2022-10-20T05:50:32;5.80;99.90
60293;DHT22;52402;52.670;6.750;2022-10-20T05:52:58;5.80;99.90
60293;DHT22;52402;52.670;6.750;2022-10-20T05:55:24;5.80;99.90
60293;DHT22;52402;52.670;6.750;2022-10-20T05:57:50;5.70;99.90
60293;DHT22;52402;52.670;6.750;2022-10-20T06:00:16;5.80;99.90
60293;DHT22;52402;52.670;6.750;2022-10-20T06:02:43;5.80;99.90
60293;DHT22;52402;52.670;6.750;2022-10-20T06:05:09;5.80;99.90
60293;DHT22;52402;52.670;6.750;2022-10-20T06:07:35;5.80;99.90
60293;DHT22;52402;52.670;6.750;2022-10-20T06:10:00;5.80;99.90
60293;DHT22;52402;52.670;6.750;2022-10-20T06:12:26;5.70;99.90
60293;DHT22;52402;52.670;6.750;2022-10-20T06:14:52;5.70;99.90
60293;DHT22;52402;52.670;6.750;2022-10-20T06:17:17;5.80;99.90
60293;DHT22;52402;52.670;6.750;2022-10-20T06:19:43;5.80;99.90
60293;DHT22;52402;52.670;6.750;2022-10-20T06:22:08;5.80;99.90
60293;DHT22;52402;52.670;6.750;2022-10-20T06:24:34;5.80;99.90
60293;DHT22;52402;52.670;6.750;2022-10-20T06:27:00;5.80;99.90
60293;DHT22;52402;52.670;6.750;2022-10-20T06:29:25;5.80;99.90
60293;DHT22;52402;52.670;6.750;2022-10-20T06:31:54;5.80;99.90
60293;DHT22;52402;52.670;6.750;2022-10-20T06:34:24;5.90;99.90
60293;DHT22;52402;52.670;6.750;2022-10-20T06:36:50;5.80;99.90
60293;DHT22;52402;52.670;6.750;2022-10-20T06:39:21;5.80;99.90
60293;DHT22;52402;52.670;6.750;2022-10-20T06:41:52;5.90;99.90
60293;DHT22;52402;52.670;6.750;2022-10-20T06:44:18;5.90;99.90
60293;DHT22;52402;52.670;6.750;2022-10-20T06:46:44;5.90;99.90
60293;DHT22;52402;52.670;6.750;2022-10-20T06:49:11;6.00;99.90
60293;DHT22;52402;52.670;6.750;2022-10-20T06:51:37;6.00;99.90
60293;DHT22;52402;52.670;6.750;2022-10-20T06:54:04;6.10;99.90
60293;DHT22;52402;52.670;6.750;2022-10-20T06:56:32;6.10;99.90
60293;DHT22;52402;52.670;6.750;2022-10-20T06:58:59;6.20;99.90
60293;DHT22;52402;52.670;6.750;2022-10-20T07:01:27;6.20;99.90
60293;DHT22;52402;52.670;6.750;2022-10-20T07:03:55;6.30;99.90
60293;DHT22;52402;52.670;6.750;2022-10-20T07:06:24;6.30;99.90
60293;DHT22;52402;52.670;6.750;2022-10-20T07:08:51;6.40;99.90
60293;DHT22;52402;52.670;6.750;2022-10-20T07:11:20;6.40;99.90
60293;DHT22;52402;52.670;6.750;2022-10-20T07:13:46;6.50;99.90
60293;DHT22;52402;52.670;6.750;2022-10-20T07:16:15;6.50;99.90
60293;DHT22;52402;52.670;6.750;2022-10-20T07:18:41;6.60;99.90
60293;DHT22;52402;52.670;6.750;2022-10-20T07:21:11;6.60;99.90
60293;DHT22;52402;52.670;6.750;2022-10-20T07:23:37;6.60;99.90
60293;DHT22;52402;52.670;6.750;2022-10-20T07:26:17;6.70;99.90
60293;DHT22;52402;52.670;6.750;2022-10-20T07:28:44;6.70;99.90
60293;DHT22;52402;52.670;6.750;2022-10-20T07:31:13;6.70;99.90
60293;DHT22;52402;52.670;6.750;2022-10-20T07:33:39;6.80;99.90
60293;DHT22;52402;52.670;6.750;2022-10-20T07:36:22;6.80;99.90
60293;DHT22;52402;52.670;6.750;2022-10-20T07:38:50;6.90;99.90
60293;DHT22;52402;52.670;6.750;2022-10-20T07:41:16;6.90;99.90
60293;DHT22;52402;52.670;6.750;2022-10-20T07:43:43;6.90;99.90
60293;DHT22;52402;52.670;6.750;2022-10-20T07:46:11;7.00;99.90
60293;DHT22;52402;52.670;6.750;2022-10-20T07:48:37;7.00;99.90
60293;DHT22;52402;52.670;6.750;2022-10-20T07:51:32;7.10;99.90
60293;DHT22;52402;52.670;6.750;2022-10-20T07:54:06;7.10;99.90
60293;DHT22;52402;52.670;6.750;2022-10-20T07:56:35;7.10;99.90
60293;DHT22;52402;52.670;6.750;2022-10-20T07:59:01;7.20;99.90
60293;DHT22;52402;52.670;6.750;2022-10-20T08:01:27;7.20;99.90
60293;DHT22;52402;52.670;6.750;2022-10-20T08:03:53;7.30;99.90
60293;DHT22;52402;52.670;6.750;2022-10-20T08:06:19;7.30;99.90
60293;DHT22;52402;52.670;6.750;2022-10-20T08:08:44;7.40;99.90
60293;DHT22;52402;52.670;6.750;2022-10-20T08:11:10;7.40;99.90
60293;DHT22;52402;52.670;6.750;2022-10-20T08:13:36;7.60;99.90
60293;DHT22;52402;52.670;6.750;2022-10-20T08:16:02;7.60;99.90
60293;DHT22;52402;52.670;6.750;2022-10-20T08:18:28;7.70;99.90
60293;DHT22;52402;52.670;6.750;2022-10-20T08:20:53;7.80;99.90
60293;DHT22;52402;52.670;6.750;2022-10-20T08:23:29;7.90;99.90
60293;DHT22;52402;52.670;6.750;2022-10-20T08:25:55;7.90;99.90
60293;DHT22;52402;52.670;6.750;2022-10-20T08:28:20;8.00;99.90
60293;DHT22;52402;52.670;6.750;2022-10-20T08:30:46;8.10;99.90
60293;DHT22;52402;52.670;6.750;2022-10-20T08:33:11;8.20;99.90
60293;DHT22;52402;52.670;6.750;2022-10-20T08:35:37;8.30;99.90
60293;DHT22;52402;52.670;6.750;2022-10-20T08:38:04;8.40;99.90
60293;DHT22;52402;52.670;6.750;2022-10-20T08:40:30;8.50;99.90
60293;DHT22;52402;52.670;6.750;2022-10-20T08:42:56;8.60;99.90
60293;DHT22;52402;52.670;6.750;2022-10-20T08:45:25;8.60;99.90
60293;DHT22;52402;52.670;6.750;2022-10-20T08:47:53;8.70;99.90
60293;DHT22;52402;52.670;6.750;2022-10-20T08:50:20;8.80;99.90
60293;DHT22;52402;52.670;6.750;2022-10-20T08:52:51;8.90;99.90
60293;DHT22;52402;52.670;6.750;2022-10-20T08:55:27;9.00;99.90
60293;DHT22;52402;52.670;6.750;2022-10-20T08:58:18;9.00;99.90
60293;DHT22;52402;52.670;6.750;2022-10-20T09:00:45;9.00;99.90
60293;DHT22;52402;52.670;6.750;2022-10-20T09:05:40;9.10;99.90
60293;DHT22;52402;52.670;6.750;2022-10-20T09:08:06;9.20;99.90
60293;DHT22;52402;52.670;6.750;2022-10-20T09:10:37;9.20;99.90
60293;DHT22;52402;52.670;6.750;2022-10-20T09:13:22;9.30;99.90
60293;DHT22;52402;52.670;6.750;2022-10-20T09:15:50;9.40;99.90
60293;DHT22;52402;52.670;6.750;2022-10-20T09:18:18;9.50;99.90
60293;DHT22;52402;52.670;6.750;2022-10-20T09:20:51;9.60;99.90
60293;DHT22;52402;52.670;6.750;2022-10-20T09:23:22;9.60;99.90
60293;DHT22;52402;52.670;6.750;2022-10-20T09:25:50;9.70;99.90
60293;DHT22;52402;52.670;6.750;2022-10-20T09:28:22;9.80;99.90
60293;DHT22;52402;52.670;6.750;2022-10-20T09:30:49;9.90;99.90
60293;DHT22;52402;52.670;6.750;2022-10-20T09:33:28;10.00;99.90
60293;DHT22;52402;52.670;6.750;2022-10-20T09:36:00;10.10;99.90
60293;DHT22;52402;52.670;6.750;2022-10-20T09:38:27;10.20;99.90
60293;DHT22;52402;52.670;6.750;2022-10-20T09:41:00;10.30;99.90
60293;DHT22;52402;52.670;6.750;2022-10-20T09:43:27;10.40;99.90
60293;DHT22;52402;52.670;6.750;2022-10-20T09:45:56;10.50;99.90
60293;DHT22;52402;52.670;6.750;2022-10-20T09:48:28;10.60;99.90
60293;DHT22;52402;52.670;6.750;2022-10-20T09:50:56;10.70;99.90
60293;DHT22;52402;52.670;6.750;2022-10-20T09:53:31;10.80;99.90
60293;DHT22;52402;52.670;6.750;2022-10-20T09:55:57;10.80;99.90
60293;DHT22;52402;52.670;6.750;2022-10-20T09:58:27;10.90;99.90
60293;DHT22;52402;52.670;6.750;2022-10-20T10:09:25;11.10;99.90
60293;DHT22;52402;52.670;6.750;2022-10-20T10:14:36;11.30;99.90
60293;DHT22;52402;52.670;6.750;2022-10-20T10:17:03;11.30;99.90
60293;DHT22;52402;52.670;6.750;2022-10-20T10:19:31;11.30;99.90
60293;DHT22;52402;52.670;6.750;2022-10-20T10:22:01;11.30;99.90
60293;DHT22;52402;52.670;6.750;2022-10-20T10:26:59;11.40;99.90
60293;DHT22;52402;52.670;6.750;2022-10-20T10:29:32;11.50;99.90
60293;DHT22;52402;52.670;6.750;2022-10-20T10:35:03;11.70;99.90
60293;DHT22;52402;52.670;6.750;2022-10-20T10:37:32;11.80;99.90
60293;DHT22;52402;52.670;6.750;2022-10-20T10:39:58;11.80;99.90
60293;DHT22;52402;52.670;6.750;2022-10-20T10:45:51;11.90;99.90
60293;DHT22;52402;52.670;6.750;2022-10-20T10:56:48;12.10;99.90
60293;DHT22;52402;52.670;6.750;2022-10-20T11:02:16;12.40;99.90
60293;DHT22;52402;52.670;6.750;2022-10-20T11:11:27;12.50;99.90
60293;DHT22;52402;52.670;6.750;2022-10-20T11:17:02;12.60;99.90
60293;DHT22;52402;52.670;6.750;2022-10-20T11:19:55;12.70;99.90
60293;DHT22;52402;52.670;6.750;2022-10-20T11:27:51;12.80;99.90
60293;DHT22;52402;52.670;6.750;2022-10-20T11:30:18;12.80;99.90
60293;DHT22;52402;52.670;6.750;2022-10-20T11:35:34;12.90;99.90
60293;DHT22;52402;52.670;6.750;2022-10-20T11:41:04;13.00;99.90
60293;DHT22;52402;52.670;6.750;2022-10-20T11:43:45;13.00;99.90
60293;DHT22;52402;52.670;6.750;2022-10-20T11:46:16;12.90;99.90
60293;DHT22;52402;52.670;6.750;2022-10-20T11:48:51;12.90;99.90
60293;DHT22;52402;52.670;6.750;2022-10-20T11:54:12;12.90;99.90
60293;DHT22;52402;52.670;6.750;2022-10-20T11:57:00;12.90;99.90
60293;DHT22;52402;52.670;6.750;2022-10-20T12:07:43;12.70;99.90
60293;DHT22;52402;52.670;6.750;2022-10-20T12:16:05;12.70;99.90
60293;DHT22;52402;52.670;6.750;2022-10-20T12:18:35;12.60;99.90
60293;DHT22;52402;52.670;6.750;2022-10-20T12:28:53;12.60;99.90
60293;DHT22;52402;52.670;6.750;2022-10-20T12:31:19;12.50;99.90
60293;DHT22;52402;52.670;6.750;2022-10-20T12:38:43;12.50;99.90
60293;DHT22;52402;52.670;6.750;2022-10-20T12:41:23;12.50;99.90
60293;DHT22;52402;52.670;6.750;2022-10-20T12:43:52;12.50;99.90
60293;DHT22;52402;52.670;6.750;2022-10-20T12:46:25;12.50;99.90
60293;DHT22;52402;52.670;6.750;2022-10-20T12:48:54;12.50;99.90
60293;DHT22;52402;52.670;6.750;2022-10-20T12:51:37;12.50;99.90
60293;DHT22;52402;52.670;6.750;2022-10-20T12:56:47;12.50;99.90
60293;DHT22;52402;52.670;6.750;2022-10-20T13:10:47;12.30;99.90
60293;DHT22;52402;52.670;6.750;2022-10-20T13:15:57;12.30;99.90
60293;DHT22;52402;52.670;6.750;2022-10-20T13:18:29;12.40;99.90
60293;DHT22;52402;52.670;6.750;2022-10-20T13:21:30;12.30;99.90
60293;DHT22;52402;52.670;6.750;2022-10-20T13:24:03;12.30;99.90
60293;DHT22;52402;52.670;6.750;2022-10-20T13:26:30;12.40;99.90
60293;DHT22;52402;52.670;6.750;2022-10-20T13:29:00;12.30;99.90
60293;DHT22;52402;52.670;6.750;2022-10-20T13:42:30;12.40;99.90
60293;DHT22;52402;52.670;6.750;2022-10-20T13:45:10;12.30;99.90
60293;DHT22;52402;52.670;6.750;2022-10-20T13:52:50;12.30;99.90
60293;DHT22;52402;52.670;6.750;2022-10-20T13:55:26;12.20;99.90
60293;DHT22;52402;52.670;6.750;2022-10-20T13:58:13;12.30;99.90
60293;DHT22;52402;52.670;6.750;2022-10-20T14:01:13;12.20;99.90
60293;DHT22;52402;52.670;6.750;2022-10-20T14:03:45;12.20;99.90
60293;DHT22;52402;52.670;6.750;2022-10-20T14:08:55;12.20;99.90
60293;DHT22;52402;52.670;6.750;2022-10-20T14:11:23;12.20;99.90
60293;DHT22;52402;52.670;6.750;2022-10-20T14:13:49;12.20;99.90
60293;DHT22;52402;52.670;6.750;2022-10-20T14:16:27;12.20;99.90
60293;DHT22;52402;52.670;6.750;2022-10-20T14:19:06;12.30;99.90
60293;DHT22;52402;52.670;6.750;2022-10-20T14:21:45;12.30;99.90
60293;DHT22;52402;52.670;6.750;2022-10-20T14:24:31;12.30;99.90
60293;DHT22;52402;52.670;6.750;2022-10-20T14:26:59;12.30;99.90
60293;DHT22;52402;52.670;6.750;2022-10-20T14:29:28;12.30;99.90
60293;DHT22;52402;52.670;6.750;2022-10-20T14:31:55;12.30;99.90
60293;DHT22;52402;52.670;6.750;2022-10-20T14:34:27;12.40;99.90
60293;DHT22;52402;52.670;6.750;2022-10-20T14:36:53;12.40;99.90
60293;DHT22;52402;52.670;6.750;2022-10-20T14:39:35;12.50;99.90
60293;DHT22;52402;52.670;6.750;2022-10-20T14:42:04;12.60;99.90
60293;DHT22;52402;52.670;6.750;2022-10-20T14:44:30;12.60;99.90
60293;DHT22;52402;52.670;6.750;2022-10-20T14:46:59;12.70;99.90
60293;DHT22;52402;52.670;6.750;2022-10-20T14:49:32;12.80;99.90
60293;DHT22;52402;52.670;6.750;2022-10-20T14:52:20;12.90;99.90
60293;DHT22;52402;52.670;6.750;2022-10-20T14:54:50;12.90;99.90
60293;DHT22;52402;52.670;6.750;2022-10-20T15:00:19;12.90;99.90
60293;DHT22;52402;52.670;6.750;2022-10-20T15:02:47;12.90;99.90
60293;DHT22;52402;52.670;6.750;2022-10-20T15:07:56;12.70;99.90
60293;DHT22;52402;52.670;6.750;2022-10-20T15:10:26;12.80;99.90
60293;DHT22;52402;52.670;6.750;2022-10-20T15:12:53;12.70;99.90
60293;DHT22;52402;52.670;6.750;2022-10-20T15:15:22;12.70;99.90
60293;DHT22;52402;52.670;6.750;2022-10-20T15:17:50;12.70;99.90
60293;DHT22;52402;52.670;6.750;2022-10-20T15:20:37;12.70;99.90
60293;DHT22;52402;52.670;6.750;2022-10-20T15:23:07;12.70;99.90
60293;DHT22;52402;52.670;6.750;2022-10-20T15:26:26;12.70;99.90
60293;DHT22;52402;52.670;6.750;2022-10-20T15:30:59;12.70;99.90
60293;DHT22;52402;52.670;6.750;2022-10-20T15:33:25;12.70;99.90
60293;DHT22;52402;52.670;6.750;2022-10-20T15:35:51;12.70;99.90
60293;DHT22;52402;52.670;6.750;2022-10-20T15:38:17;12.80;99.90
60293;DHT22;52402;52.670;6.750;2022-10-20T15:40:43;12.80;99.90
60293;DHT22;52402;52.670;6.750;2022-10-20T15:43:15;12.80;99.90
60293;DHT22;52402;52.670;6.750;2022-10-20T15:45:51;12.80;99.90
60293;DHT22;52402;52.670;6.750;2022-10-20T15:48:18;12.90;99.90
60293;DHT22;52402;52.670;6.750;2022-10-20T15:50:45;12.90;99.90
60293;DHT22;52402;52.670;6.750;2022-10-20T15:53:11;12.90;99.90
60293;DHT22;52402;52.670;6.750;2022-10-20T15:55:42;12.90;99.90
60293;DHT22;52402;52.670;6.750;2022-10-20T15:58:08;12.90;99.90
60293;DHT22;52402;52.670;6.750;2022-10-20T16:00:34;12.80;99.90
60293;DHT22;52402;52.670;6.750;2022-10-20T16:03:00;12.90;99.90
60293;DHT22;52402;52.670;6.750;2022-10-20T16:05:26;12.90;99.90
60293;DHT22;52402;52.670;6.750;2022-10-20T16:07:53;12.80;99.90
60293;DHT22;52402;52.670;6.750;2022-10-20T16:10:24;12.90;99.90
60293;DHT22;52402;52.670;6.750;2022-10-20T16:12:50;12.90;99.90
60293;DHT22;52402;52.670;6.750;2022-10-20T16:15:16;12.90;99.90
60293;DHT22;52402;52.670;6.750;2022-10-20T16:17:42;12.80;99.90
60293;DHT22;52402;52.670;6.750;2022-10-20T16:20:09;12.80;99.90
60293;DHT22;52402;52.670;6.750;2022-10-20T16:22:35;12.80;99.90
60293;DHT22;52402;52.670;6.750;2022-10-20T16:25:01;12.80;99.90
60293;DHT22;52402;52.670;6.750;2022-10-20T16:27:28;12.80;99.90
60293;DHT22;52402;52.670;6.750;2022-10-20T16:29:53;12.80;99.90
60293;DHT22;52402;52.670;6.750;2022-10-20T16:32:19;12.70;99.90
60293;DHT22;52402;52.670;6.750;2022-10-20T16:34:45;12.70;99.90
60293;DHT22;52402;52.670;6.750;2022-10-20T16:37:10;12.70;99.90
60293;DHT22;52402;52.670;6.750;2022-10-20T16:39:36;12.70;99.90
60293;DHT22;52402;52.670;6.750;2022-10-20T16:42:01;12.60;99.90
60293;DHT22;52402;52.670;6.750;2022-10-20T16:44:27;12.60;99.90
60293;DHT22;52402;52.670;6.750;2022-10-20T16:46:52;12.50;99.90
60293;DHT22;52402;52.670;6.750;2022-10-20T16:49:18;12.50;99.90
60293;DHT22;52402;52.670;6.750;2022-10-20T16:51:44;12.40;99.90
60293;DHT22;52402;52.670;6.750;2022-10-20T16:54:09;12.40;99.90
60293;DHT22;52402;52.670;6.750;2022-10-20T16:56:35;12.40;99.90
60293;DHT22;52402;52.670;6.750;2022-10-20T16:59:01;12.40;99.90
60293;DHT22;52402;52.670;6.750;2022-10-20T17:01:26;12.30;99.90
60293;DHT22;52402;52.670;6.750;2022-10-20T17:03:52;12.30;99.90
60293;DHT22;52402;52.670;6.750;2022-10-20T17:06:21;12.30;99.90
60293;DHT22;52402;52.670;6.750;2022-10-20T17:08:48;12.20;99.90
60293;DHT22;52402;52.670;6.750;2022-10-20T17:11:16;12.20;99.90
60293;DHT22;52402;52.670;6.750;2022-10-20T17:13:42;12.10;99.90
60293;DHT22;52402;52.670;6.750;2022-10-20T17:16:11;12.20;99.90
60293;DHT22;52402;52.670;6.750;2022-10-20T17:18:37;12.10;99.90
60293;DHT22;52402;52.670;6.750;2022-10-20T17:21:03;12.10;99.90
60293;DHT22;52402;52.670;6.750;2022-10-20T17:23:34;12.10;99.90
60293;DHT22;52402;52.670;6.750;2022-10-20T17:26:01;12.00;99.90
60293;DHT22;52402;52.670;6.750;2022-10-20T17:28:28;12.00;99.90
60293;DHT22;52402;52.670;6.750;2022-10-20T17:30:54;12.00;99.90
60293;DHT22;52402;52.670;6.750;2022-10-20T17:33:27;12.00;99.90
60293;DHT22;52402;52.670;6.750;2022-10-20T17:35:54;12.00;99.90
60293;DHT22;52402;52.670;6.750;2022-10-20T17:38:20;11.90;99.90
60293;DHT22;52402;52.670;6.750;2022-10-20T17:40:45;11.90;99.90
60293;DHT22;52402;52.670;6.750;2022-10-20T17:43:11;11.80;99.90
60293;DHT22;52402;52.670;6.750;2022-10-20T17:45:37;11.80;99.90
60293;DHT22;52402;52.670;6.750;2022-10-20T17:48:03;11.80;99.90
60293;DHT22;52402;52.670;6.750;2022-10-20T17:50:30;11.80;99.90
60293;DHT22;52402;52.670;6.750;2022-10-20T17:53:00;11.80;99.90
60293;DHT22;52402;52.670;6.750;2022-10-20T17:55:26;11.80;99.90
60293;DHT22;52402;52.670;6.750;2022-10-20T17:57:51;11.70;99.90
60293;DHT22;52402;52.670;6.750;2022-10-20T18:00:17;11.70;99.90
60293;DHT22;52402;52.670;6.750;2022-10-20T18:02:50;11.70;99.90
60293;DHT22;52402;52.670;6.750;2022-10-20T18:05:16;11.70;99.90
60293;DHT22;52402;52.670;6.750;2022-10-20T18:07:42;11.70;99.90
60293;DHT22;52402;52.670;6.750;2022-10-20T18:10:08;11.70;99.90
60293;DHT22;52402;52.670;6.750;2022-10-20T18:12:34;11.70;99.90
60293;DHT22;52402;52.670;6.750;2022-10-20T18:15:00;11.70;99.90